Time;durP1;ratioP1;P1;durP2;ratioP2;P2;SDS_P1;SDS_P2;PMS_P1;PMS_P2;Temp;Humidity;BMP_temperature;BMP_pressure;BME280_temperature;BME280_humidity;BME280_pressure;Samples;Min_cycle;Max_cycle;Signal;HPM_P1;HPM_P2
2023/02/02 00:01:08;;;;;;;;;;;8.00;99.90;;;;;;5075043;28;19919;-69
2023/02/02 00:03:34;;;;;;;;;;;8.00;99.90;;;;;;5055207;28;19912;-83
2023/02/02 00:06:00;;;;;;;;;;;7.90;99.90;;;;;;5056864;28;19915;-80
2023/02/02 00:08:25;;;;;;;;;;;8.00;99.90;;;;;;5074674;28;19965;-88
2023/02/02 00:10:51;;;;;;;;;;;8.00;99.90;;;;;;5057129;28;19943;-80
2023/02/02 00:13:16;;;;;;;;;;;7.90;99.90;;;;;;5075395;28;20263;-77
2023/02/02 00:15:42;;;;;;;;;;;8.00;99.90;;;;;;5073700;28;19962;-69
2023/02/02 00:18:08;;;;;;;;;;;8.00;99.90;;;;;;5073511;28;19912;-83
2023/02/02 00:20:33;;;;;;;;;;;7.90;99.90;;;;;;5077725;28;19912;-72
2023/02/02 00:22:59;;;;;;;;;;;7.90;99.90;;;;;;5056334;28;20298;-69
2023/02/02 00:25:25;;;;;;;;;;;7.90;99.90;;;;;;5074720;28;19951;-86
2023/02/02 00:27:50;;;;;;;;;;;7.90;99.90;;;;;;5066572;28;20006;-77
2023/02/02 00:30:16;;;;;;;;;;;7.90;99.90;;;;;;5072094;28;19916;-87
2023/02/02 00:32:41;;;;;;;;;;;7.90;99.90;;;;;;5053269;28;19917;-83
2023/02/02 00:35:08;;;;;;;;;;;7.90;99.90;;;;;;5072240;28;19913;-83
2023/02/02 00:37:33;;;;;;;;;;;7.80;99.90;;;;;;5062970;28;19915;-80
2023/02/02 00:39:59;;;;;;;;;;;7.70;99.90;;;;;;5065777;28;19909;-70
2023/02/02 00:42:24;;;;;;;;;;;7.70;99.90;;;;;;5066382;28;19916;-78
2023/02/02 00:47:34;;;;;;;;;;;7.50;99.90;;;;;;5076618;28;19915;-69
2023/02/02 00:50:00;;;;;;;;;;;7.50;99.90;;;;;;5050193;28;19908;-79
2023/02/02 00:52:25;;;;;;;;;;;7.40;99.90;;;;;;5068579;28;20005;-67
2023/02/02 00:54:51;;;;;;;;;;;7.40;99.90;;;;;;5075774;28;19912;-85
2023/02/02 00:57:16;;;;;;;;;;;7.40;99.90;;;;;;5068067;28;20215;-90
2023/02/02 00:59:42;;;;;;;;;;;7.20;99.90;;;;;;5067080;28;19970;-80
2023/02/02 01:02:08;;;;;;;;;;;7.20;99.90;;;;;;5055325;28;19932;-76
2023/02/02 01:04:34;;;;;;;;;;;7.10;99.90;;;;;;5074970;28;19973;-70
2023/02/02 01:07:00;;;;;;;;;;;7.10;99.90;;;;;;5072130;28;19920;-68
2023/02/02 01:09:25;;;;;;;;;;;7.00;99.90;;;;;;5053639;28;19916;-69
2023/02/02 01:11:51;;;;;;;;;;;7.00;99.90;;;;;;5076096;28;20007;-67
2023/02/02 01:14:16;;;;;;;;;;;7.00;99.90;;;;;;5068014;28;19909;-80
2023/02/02 01:16:42;;;;;;;;;;;7.10;99.90;;;;;;5053934;28;20292;-69
2023/02/02 01:19:08;;;;;;;;;;;7.10;99.90;;;;;;5075168;28;19919;-69
2023/02/02 01:21:33;;;;;;;;;;;7.10;99.90;;;;;;5049338;28;19912;-85
2023/02/02 01:23:59;;;;;;;;;;;7.00;99.90;;;;;;5076587;28;20211;-74
2023/02/02 01:26:24;;;;;;;;;;;7.10;99.90;;;;;;5070317;28;19914;-85
2023/02/02 01:28:50;;;;;;;;;;;7.00;99.90;;;;;;5076312;28;19916;-70
2023/02/02 01:31:16;;;;;;;;;;;7.00;99.90;;;;;;5075174;28;19918;-77
2023/02/02 01:33:42;;;;;;;;;;;7.10;99.90;;;;;;5067759;28;19915;-85
2023/02/02 01:36:13;;;;;;;;;;;7.10;99.90;;;;;;5070263;28;19918;-70
2023/02/02 01:38:39;;;;;;;;;;;7.10;99.90;;;;;;5065564;28;19938;-67
2023/02/02 01:41:04;;;;;;;;;;;7.10;99.90;;;;;;5073618;28;19908;-68
2023/02/02 01:43:51;;;;;;;;;;;7.10;99.90;;;;;;5071200;28;20187;-73
2023/02/02 01:46:20;;;;;;;;;;;7.00;99.90;;;;;;5068578;28;19919;-80
2023/02/02 01:48:47;;;;;;;;;;;7.10;99.90;;;;;;5072226;28;19942;-81
2023/02/02 01:51:15;;;;;;;;;;;7.10;99.90;;;;;;5066650;28;20007;-78
2023/02/02 01:53:42;;;;;;;;;;;7.10;99.90;;;;;;5042353;28;19912;-78
2023/02/02 01:56:09;;;;;;;;;;;7.10;99.90;;;;;;5048354;28;20421;-76
2023/02/02 01:58:37;;;;;;;;;;;7.10;99.90;;;;;;5064662;28;20299;-82
2023/02/02 02:01:03;;;;;;;;;;;7.10;99.90;;;;;;5067945;28;20324;-81
2023/02/02 02:03:30;;;;;;;;;;;7.10;99.90;;;;;;5063379;28;20310;-77
2023/02/02 02:05:58;;;;;;;;;;;7.20;99.90;;;;;;5069555;28;19909;-69
2023/02/02 02:08:24;;;;;;;;;;;7.20;99.90;;;;;;5070698;28;20264;-75
2023/02/02 02:10:50;;;;;;;;;;;7.20;99.90;;;;;;5043498;28;19912;-85
2023/02/02 02:13:16;;;;;;;;;;;7.20;99.90;;;;;;5046307;28;19958;-77
2023/02/02 02:16:20;;;;;;;;;;;7.20;99.90;;;;;;5053250;28;19908;-82
2023/02/02 02:18:53;;;;;;;;;;;7.20;99.90;;;;;;5052167;28;19928;-80
2023/02/02 02:27:25;;;;;;;;;;;7.30;99.90;;;;;;5053319;28;20408;-83
2023/02/02 02:30:03;;;;;;;;;;;7.30;99.90;;;;;;5052310;28;19913;-78
2023/02/02 02:32:41;;;;;;;;;;;7.30;99.90;;;;;;5044488;28;20315;-83
2023/02/02 02:35:25;;;;;;;;;;;7.30;99.90;;;;;;5045768;28;20193;-76
2023/02/02 02:38:01;;;;;;;;;;;7.30;99.90;;;;;;5054767;28;19912;-78
2023/02/02 02:40:46;;;;;;;;;;;7.30;99.90;;;;;;5054369;28;19952;-87
2023/02/02 02:43:15;;;;;;;;;;;7.40;99.90;;;;;;5045740;28;19909;-80
2023/02/02 02:45:43;;;;;;;;;;;7.40;99.90;;;;;;5053234;28;19908;-84
2023/02/02 02:48:09;;;;;;;;;;;7.40;99.90;;;;;;5048963;28;19916;-83
2023/02/02 02:50:35;;;;;;;;;;;7.40;99.90;;;;;;5051163;28;19916;-83
2023/02/02 02:53:23;;;;;;;;;;;7.40;99.90;;;;;;5054424;28;19923;-75
2023/02/02 02:56:02;;;;;;;;;;;7.40;99.90;;;;;;5037420;28;19909;-77
2023/02/02 02:58:34;;;;;;;;;;;7.40;99.90;;;;;;5051633;28;19920;-77
2023/02/02 03:01:02;;;;;;;;;;;7.40;99.90;;;;;;5051689;28;20219;-77
2023/02/02 03:04:00;;;;;;;;;;;7.40;99.90;;;;;;5049605;28;19913;-88
2023/02/02 03:06:40;;;;;;;;;;;7.50;99.90;;;;;;4991344;28;19949;-69
2023/02/02 03:09:08;;;;;;;;;;;7.50;99.90;;;;;;4991661;28;19918;-86
2023/02/02 03:11:34;;;;;;;;;;;7.50;99.90;;;;;;4988559;28;19929;-80
2023/02/02 03:14:00;;;;;;;;;;;7.60;99.90;;;;;;4991773;28;20229;-84
2023/02/02 03:16:26;;;;;;;;;;;7.60;99.90;;;;;;4990091;28;19914;-84
2023/02/02 03:18:52;;;;;;;;;;;7.60;99.90;;;;;;4993773;28;20260;-80
2023/02/02 03:21:18;;;;;;;;;;;7.70;99.90;;;;;;4993399;28;20384;-71
2023/02/02 03:23:43;;;;;;;;;;;7.60;99.90;;;;;;4990697;28;20011;-78
2023/02/02 03:26:09;;;;;;;;;;;7.70;99.90;;;;;;4987953;28;19912;-80
2023/02/02 03:28:35;;;;;;;;;;;7.70;99.90;;;;;;4991752;28;19956;-83
2023/02/02 03:31:00;;;;;;;;;;;7.70;99.90;;;;;;4991542;28;19980;-79
2023/02/02 03:33:26;;;;;;;;;;;7.70;99.90;;;;;;4973635;28;19913;-79
2023/02/02 03:35:52;;;;;;;;;;;7.80;99.90;;;;;;4992697;28;19916;-80
2023/02/02 03:38:17;;;;;;;;;;;7.80;99.90;;;;;;4993105;28;20396;-83
2023/02/02 03:40:43;;;;;;;;;;;7.80;99.90;;;;;;4993432;28;19924;-76
2023/02/02 03:43:09;;;;;;;;;;;7.80;99.90;;;;;;5044565;28;20303;-74
2023/02/02 03:45:36;;;;;;;;;;;7.80;99.90;;;;;;5052209;28;20007;-76
2023/02/02 03:48:04;;;;;;;;;;;7.80;99.90;;;;;;5049916;28;19916;-77
2023/02/02 03:50:30;;;;;;;;;;;7.80;99.90;;;;;;5054157;28;19909;-82
2023/02/02 03:52:55;;;;;;;;;;;7.80;99.90;;;;;;5054957;28;20216;-78
2023/02/02 03:55:21;;;;;;;;;;;7.80;99.90;;;;;;5054319;28;20016;-89
2023/02/02 03:57:47;;;;;;;;;;;7.80;99.90;;;;;;5053227;28;20283;-80
2023/02/02 04:00:12;;;;;;;;;;;7.80;99.90;;;;;;5049222;28;19952;-85
2023/02/02 04:02:38;;;;;;;;;;;7.80;99.90;;;;;;5050098;28;19963;-73
2023/02/02 04:05:04;;;;;;;;;;;7.90;99.90;;;;;;5053406;28;20322;-81
2023/02/02 04:07:30;;;;;;;;;;;7.90;99.90;;;;;;5053685;28;19916;-79
2023/02/02 04:09:55;;;;;;;;;;;7.90;99.90;;;;;;5061895;28;19916;-80
2023/02/02 04:12:21;;;;;;;;;;;7.90;99.90;;;;;;5060196;28;19924;-91
2023/02/02 04:14:46;;;;;;;;;;;7.90;99.90;;;;;;5060692;28;20001;-82
2023/02/02 04:17:12;;;;;;;;;;;7.90;99.90;;;;;;5076748;28;20218;-81
2023/02/02 04:19:37;;;;;;;;;;;7.90;99.90;;;;;;5073030;28;19913;-81
2023/02/02 04:22:03;;;;;;;;;;;7.90;99.90;;;;;;5076513;28;19904;-77
2023/02/02 04:24:28;;;;;;;;;;;7.90;99.90;;;;;;5054691;28;19922;-75
2023/02/02 04:26:54;;;;;;;;;;;7.90;99.90;;;;;;5078367;28;19940;-75
2023/02/02 04:29:19;;;;;;;;;;;7.90;99.90;;;;;;5072768;28;20287;-85
2023/02/02 04:31:45;;;;;;;;;;;8.00;99.90;;;;;;5069905;28;19920;-76
2023/02/02 04:34:11;;;;;;;;;;;8.00;99.90;;;;;;5050419;28;19916;-79
2023/02/02 04:36:36;;;;;;;;;;;8.00;99.90;;;;;;5053602;28;19909;-70
2023/02/02 04:39:02;;;;;;;;;;;8.00;99.90;;;;;;5066387;28;19916;-72
2023/02/02 04:41:27;;;;;;;;;;;8.00;99.90;;;;;;5070229;28;19916;-82
2023/02/02 04:43:53;;;;;;;;;;;8.00;99.90;;;;;;5058481;28;19908;-78
2023/02/02 04:46:18;;;;;;;;;;;8.00;99.90;;;;;;5064396;28;19995;-72
2023/02/02 04:48:46;;;;;;;;;;;8.00;99.90;;;;;;5070387;28;20208;-79
2023/02/02 04:51:12;;;;;;;;;;;8.00;99.90;;;;;;5074434;28;19957;-80
2023/02/02 04:53:39;;;;;;;;;;;8.00;99.90;;;;;;5072039;28;19916;-75
2023/02/02 04:56:10;;;;;;;;;;;8.10;99.90;;;;;;5077380;28;20001;-71
2023/02/02 04:58:36;;;;;;;;;;;8.10;99.90;;;;;;5064289;28;20055;-80
2023/02/02 05:01:07;;;;;;;;;;;8.10;99.90;;;;;;5056993;28;19952;-77
2023/02/02 05:03:32;;;;;;;;;;;8.10;99.90;;;;;;5075996;28;19908;-79
2023/02/02 05:06:01;;;;;;;;;;;8.10;99.90;;;;;;5074221;28;20219;-78
2023/02/02 05:08:27;;;;;;;;;;;8.10;99.90;;;;;;5073996;28;20257;-82
2023/02/02 05:10:52;;;;;;;;;;;8.10;99.90;;;;;;5077151;28;19912;-79
2023/02/02 05:13:18;;;;;;;;;;;8.10;99.90;;;;;;5074298;28;19912;-80
2023/02/02 05:15:43;;;;;;;;;;;8.10;99.90;;;;;;5071339;28;19912;-69
2023/02/02 05:18:09;;;;;;;;;;;8.00;99.90;;;;;;5072322;28;19909;-82
2023/02/02 05:20:34;;;;;;;;;;;8.10;99.90;;;;;;5075026;28;19916;-70
2023/02/02 05:23:00;;;;;;;;;;;8.10;99.90;;;;;;5076023;28;19959;-77
2023/02/02 05:25:25;;;;;;;;;;;8.10;99.90;;;;;;5057697;28;19947;-84
2023/02/02 05:27:51;;;;;;;;;;;8.10;99.90;;;;;;5059193;28;19912;-88
2023/02/02 05:30:17;;;;;;;;;;;8.10;99.90;;;;;;5070259;28;19908;-82
2023/02/02 05:32:42;;;;;;;;;;;8.00;99.90;;;;;;5076697;28;19912;-79
2023/02/02 05:35:09;;;;;;;;;;;8.10;99.90;;;;;;5071811;28;19919;-77
2023/02/02 05:37:34;;;;;;;;;;;8.00;99.90;;;;;;5054882;28;19919;-84
2023/02/02 05:40:00;;;;;;;;;;;8.00;99.90;;;;;;5047566;28;19909;-76
2023/02/02 05:42:25;;;;;;;;;;;8.00;99.90;;;;;;5072524;28;20325;-78
2023/02/02 05:44:51;;;;;;;;;;;8.10;99.90;;;;;;5076577;28;20006;-77
2023/02/02 05:47:16;;;;;;;;;;;8.00;99.90;;;;;;5075066;28;19909;-76
2023/02/02 05:49:42;;;;;;;;;;;8.00;99.90;;;;;;5073424;28;19926;-76
2023/02/02 05:52:12;;;;;;;;;;;8.00;99.90;;;;;;5057588;28;20250;-77
2023/02/02 05:54:38;;;;;;;;;;;8.00;99.90;;;;;;5062625;28;20061;-77
2023/02/02 05:57:03;;;;;;;;;;;8.00;99.90;;;;;;5075081;28;19999;-78
2023/02/02 05:59:29;;;;;;;;;;;8.00;99.90;;;;;;5063957;28;19912;-77
2023/02/02 06:01:54;;;;;;;;;;;8.00;99.90;;;;;;5049291;28;20188;-78
2023/02/02 06:04:20;;;;;;;;;;;8.00;99.90;;;;;;5072417;28;19927;-72
2023/02/02 06:06:46;;;;;;;;;;;8.00;99.90;;;;;;5072070;28;19951;-81
2023/02/02 06:09:12;;;;;;;;;;;8.00;99.90;;;;;;5056670;28;19912;-79
2023/02/02 06:11:38;;;;;;;;;;;8.00;99.90;;;;;;5072327;28;19920;-76
2023/02/02 06:14:03;;;;;;;;;;;8.00;99.90;;;;;;5063808;28;19908;-77
2023/02/02 06:16:29;;;;;;;;;;;8.00;99.90;;;;;;5068689;28;19935;-79
2023/02/02 06:18:55;;;;;;;;;;;8.00;99.90;;;;;;5075242;28;19908;-72
2023/02/02 06:21:23;;;;;;;;;;;8.00;99.90;;;;;;5057023;28;20023;-79
2023/02/02 06:23:48;;;;;;;;;;;8.00;99.90;;;;;;5075502;28;19912;-72
2023/02/02 06:26:15;;;;;;;;;;;7.90;99.90;;;;;;5075344;28;20291;-77
2023/02/02 06:28:41;;;;;;;;;;;7.90;99.90;;;;;;5060431;28;19932;-78
2023/02/02 06:31:08;;;;;;;;;;;7.90;99.90;;;;;;5062841;28;19939;-76
2023/02/02 06:33:33;;;;;;;;;;;8.00;99.90;;;;;;5049162;28;19915;-75
2023/02/02 06:36:00;;;;;;;;;;;7.90;99.90;;;;;;5075055;28;19908;-77
2023/02/02 06:38:25;;;;;;;;;;;7.90;99.90;;;;;;5061367;28;19912;-72
2023/02/02 06:40:51;;;;;;;;;;;7.90;99.90;;;;;;5074908;28;20318;-70
2023/02/02 06:43:18;;;;;;;;;;;7.90;99.90;;;;;;5068362;28;20291;-75
2023/02/02 06:45:43;;;;;;;;;;;7.90;99.90;;;;;;5071671;28;19931;-78
2023/02/02 06:48:09;;;;;;;;;;;7.90;99.90;;;;;;5075098;28;20291;-81
2023/02/02 06:50:36;;;;;;;;;;;7.90;99.90;;;;;;5074458;28;19908;-70
2023/02/02 06:53:01;;;;;;;;;;;7.90;99.90;;;;;;5067612;28;19955;-82
2023/02/02 06:55:27;;;;;;;;;;;7.90;99.90;;;;;;5068150;28;19982;-78
2023/02/02 06:57:59;;;;;;;;;;;7.80;99.90;;;;;;5067986;28;20188;-76
2023/02/02 07:00:25;;;;;;;;;;;7.80;99.90;;;;;;5059625;28;19909;-76
2023/02/02 07:02:51;;;;;;;;;;;7.80;99.90;;;;;;5065191;28;19928;-79
2023/02/02 07:05:18;;;;;;;;;;;7.80;99.90;;;;;;5066421;28;19932;-84
2023/02/02 07:07:44;;;;;;;;;;;7.80;99.90;;;;;;5069698;28;20224;-75
2023/02/02 07:10:10;;;;;;;;;;;7.80;99.90;;;;;;5067686;28;19912;-72
2023/02/02 07:12:35;;;;;;;;;;;7.70;99.90;;;;;;5072094;28;19924;-81
2023/02/02 07:15:01;;;;;;;;;;;7.70;99.90;;;;;;5063107;28;19931;-75
2023/02/02 07:17:26;;;;;;;;;;;7.80;99.90;;;;;;5062146;28;19909;-81
2023/02/02 07:19:52;;;;;;;;;;;7.80;99.90;;;;;;5068116;28;19915;-78
2023/02/02 07:22:17;;;;;;;;;;;7.80;99.90;;;;;;5061630;28;19912;-84
2023/02/02 07:24:43;;;;;;;;;;;7.80;99.90;;;;;;5052838;28;19918;-73
2023/02/02 07:27:08;;;;;;;;;;;7.80;99.90;;;;;;5067274;28;19995;-78
2023/02/02 07:29:34;;;;;;;;;;;7.90;99.90;;;;;;5065024;28;19943;-75
2023/02/02 07:31:59;;;;;;;;;;;7.90;99.90;;;;;;5069732;28;19956;-82
2023/02/02 07:34:25;;;;;;;;;;;7.90;99.90;;;;;;5073925;28;19915;-77
2023/02/02 07:36:50;;;;;;;;;;;7.90;99.90;;;;;;5073558;28;19957;-70
2023/02/02 07:39:16;;;;;;;;;;;7.90;99.90;;;;;;5067739;28;19915;-80
2023/02/02 07:41:44;;;;;;;;;;;7.90;99.90;;;;;;5065848;28;19909;-83
2023/02/02 07:44:14;;;;;;;;;;;7.90;99.90;;;;;;5069408;28;19909;-79
2023/02/02 07:46:40;;;;;;;;;;;8.00;99.90;;;;;;5078478;28;19909;-81
2023/02/02 07:49:06;;;;;;;;;;;8.00;99.90;;;;;;5058817;28;19912;-84
2023/02/02 07:51:31;;;;;;;;;;;8.00;99.90;;;;;;5008740;28;19920;-68
2023/02/02 07:53:58;;;;;;;;;;;8.00;99.90;;;;;;4957059;28;20422;-69
2023/02/02 07:56:29;;;;;;;;;;;8.00;99.90;;;;;;4957981;28;19947;-68
2023/02/02 07:58:55;;;;;;;;;;;8.00;99.90;;;;;;4961984;28;19962;-68
2023/02/02 08:01:21;;;;;;;;;;;8.00;99.90;;;;;;4960053;28;20518;-68
2023/02/02 08:03:48;;;;;;;;;;;8.00;99.90;;;;;;4945361;28;19916;-68
2023/02/02 08:06:18;;;;;;;;;;;8.00;99.90;;;;;;4960838;28;19916;-86
2023/02/02 08:08:43;;;;;;;;;;;8.10;99.90;;;;;;4963037;28;23912;-75
2023/02/02 08:11:10;;;;;;;;;;;8.10;99.90;;;;;;4961367;28;19912;-69
2023/02/02 08:13:36;;;;;;;;;;;8.00;99.90;;;;;;4962446;28;19912;-68
2023/02/02 08:16:01;;;;;;;;;;;8.00;99.90;;;;;;4958716;28;20641;-72
2023/02/02 08:18:27;;;;;;;;;;;8.10;99.90;;;;;;4925488;28;19922;-68
2023/02/02 08:20:52;;;;;;;;;;;8.10;99.90;;;;;;4943387;28;19939;-68
2023/02/02 08:23:22;;;;;;;;;;;8.10;99.90;;;;;;4967353;28;19920;-66
2023/02/02 08:25:51;;;;;;;;;;;8.10;99.90;;;;;;4972766;28;19912;-83
2023/02/02 08:28:17;;;;;;;;;;;8.10;99.90;;;;;;4969807;28;19997;-74
2023/02/02 08:30:43;;;;;;;;;;;8.10;99.90;;;;;;4969325;28;19920;-85
2023/02/02 08:33:09;;;;;;;;;;;8.20;99.90;;;;;;4970800;28;19920;-87
2023/02/02 08:35:38;;;;;;;;;;;8.20;99.90;;;;;;4957006;28;19912;-74
2023/02/02 08:38:06;;;;;;;;;;;8.20;99.90;;;;;;4971342;28;19916;-68
2023/02/02 08:40:31;;;;;;;;;;;8.20;99.90;;;;;;4977889;28;19913;-80
2023/02/02 08:42:58;;;;;;;;;;;8.20;99.90;;;;;;4978933;28;21290;-88
2023/02/02 08:45:24;;;;;;;;;;;8.30;99.90;;;;;;4976023;28;19965;-72
2023/02/02 08:47:49;;;;;;;;;;;8.30;99.90;;;;;;4949677;28;19916;-68
2023/02/02 08:50:16;;;;;;;;;;;8.30;99.90;;;;;;4973050;28;19912;-81
2023/02/02 08:52:42;;;;;;;;;;;8.40;99.90;;;;;;4954088;28;20785;-71
2023/02/02 08:55:08;;;;;;;;;;;8.30;99.90;;;;;;4977122;28;19912;-80
2023/02/02 08:57:33;;;;;;;;;;;8.30;99.90;;;;;;4935704;28;19958;-71
2023/02/02 08:59:59;;;;;;;;;;;8.30;99.90;;;;;;4956730;28;19917;-69
2023/02/02 09:02:24;;;;;;;;;;;8.40;99.90;;;;;;4974296;28;19920;-70
2023/02/02 09:04:50;;;;;;;;;;;8.50;99.90;;;;;;4971893;28;19912;-69
2023/02/02 09:07:15;;;;;;;;;;;8.50;99.90;;;;;;4974155;28;19912;-72
2023/02/02 09:09:41;;;;;;;;;;;8.60;99.90;;;;;;4954756;28;20509;-69
2023/02/02 09:12:07;;;;;;;;;;;8.60;99.90;;;;;;4981245;28;20506;-69
2023/02/02 09:14:32;;;;;;;;;;;8.60;99.90;;;;;;4971790;28;19924;-69
2023/02/02 09:16:58;;;;;;;;;;;8.70;99.90;;;;;;4972164;28;20322;-74
2023/02/02 09:19:23;;;;;;;;;;;8.70;99.90;;;;;;4976452;28;19913;-71
2023/02/02 09:21:49;;;;;;;;;;;8.70;99.90;;;;;;4969333;28;19912;-70
2023/02/02 09:24:15;;;;;;;;;;;8.60;99.90;;;;;;4977952;28;20635;-87
2023/02/02 09:26:42;;;;;;;;;;;8.60;99.90;;;;;;4971053;28;19913;-78
2023/02/02 09:29:10;;;;;;;;;;;8.60;99.90;;;;;;4973404;28;19912;-68
2023/02/02 09:31:36;;;;;;;;;;;8.60;99.90;;;;;;4970337;28;19935;-69
2023/02/02 09:34:06;;;;;;;;;;;8.60;99.90;;;;;;4970642;28;23906;-68
2023/02/02 09:36:32;;;;;;;;;;;8.60;99.90;;;;;;4975434;28;23667;-68
2023/02/02 09:38:58;;;;;;;;;;;8.60;99.90;;;;;;4953194;28;19916;-69
2023/02/02 09:41:26;;;;;;;;;;;8.50;99.90;;;;;;4967917;28;20025;-80
2023/02/02 09:44:01;;;;;;;;;;;8.50;99.90;;;;;;4953970;28;19916;-69
2023/02/02 09:46:59;;;;;;;;;;;8.50;99.90;;;;;;4971856;28;19916;-68
2023/02/02 09:49:34;;;;;;;;;;;8.50;99.90;;;;;;4920879;28;20681;-85
2023/02/02 09:52:07;;;;;;;;;;;8.50;99.90;;;;;;4969241;28;19952;-70
2023/02/02 09:54:39;;;;;;;;;;;8.60;99.90;;;;;;4963994;28;20699;-77
2023/02/02 09:57:10;;;;;;;;;;;8.60;99.90;;;;;;4968483;28;19973;-70
2023/02/02 09:59:39;;;;;;;;;;;8.60;99.90;;;;;;4966812;28;19924;-85
2023/02/02 10:02:10;;;;;;;;;;;8.60;99.90;;;;;;4972067;28;19919;-68
2023/02/02 10:04:38;;;;;;;;;;;8.60;99.90;;;;;;4955100;28;20712;-69
2023/02/02 10:07:11;;;;;;;;;;;8.60;99.90;;;;;;4974240;28;19920;-70
2023/02/02 10:09:52;;;;;;;;;;;8.60;99.90;;;;;;4945527;28;20303;-82
2023/02/02 10:12:20;;;;;;;;;;;8.60;99.90;;;;;;4941551;28;20430;-88
2023/02/02 10:14:52;;;;;;;;;;;8.70;99.90;;;;;;4936976;28;19912;-69
2023/02/02 10:17:37;;;;;;;;;;;8.70;99.90;;;;;;4930093;28;19913;-94
2023/02/02 10:20:26;;;;;;;;;;;8.70;99.90;;;;;;4936712;28;19917;-69
2023/02/02 10:22:53;;;;;;;;;;;8.70;99.90;;;;;;4912511;28;20299;-68
2023/02/02 10:25:20;;;;;;;;;;;8.80;99.90;;;;;;4936266;28;19921;-68
2023/02/02 10:27:52;;;;;;;;;;;8.80;99.90;;;;;;4925469;28;20075;-68
2023/02/02 10:30:19;;;;;;;;;;;8.80;99.90;;;;;;4927824;28;20465;-69
2023/02/02 10:32:51;;;;;;;;;;;8.80;99.90;;;;;;4916098;28;19920;-68
2023/02/02 10:35:32;;;;;;;;;;;8.90;99.90;;;;;;4927497;28;19912;-68
2023/02/02 10:38:06;;;;;;;;;;;8.90;99.90;;;;;;4924444;28;19913;-69
2023/02/02 10:40:32;;;;;;;;;;;8.90;99.90;;;;;;4924579;28;20071;-68
2023/02/02 10:46:00;;;;;;;;;;;8.90;99.90;;;;;;4927579;28;20632;-84
2023/02/02 10:48:34;;;;;;;;;;;9.00;99.90;;;;;;4925216;28;19964;-69
2023/02/02 10:51:10;;;;;;;;;;;9.00;99.90;;;;;;4925454;28;20812;-67
2023/02/02 10:53:36;;;;;;;;;;;9.00;99.90;;;;;;4926914;28;20900;-89
2023/02/02 10:56:10;;;;;;;;;;;9.10;99.90;;;;;;4926316;28;19913;-68
2023/02/02 10:58:43;;;;;;;;;;;9.10;99.90;;;;;;4925644;28;23112;-68
2023/02/02 11:01:10;;;;;;;;;;;9.10;99.90;;;;;;4929608;28;19948;-67
2023/02/02 11:03:36;;;;;;;;;;;9.10;99.90;;;;;;4932150;28;19917;-69
2023/02/02 11:08:51;;;;;;;;;;;9.10;99.90;;;;;;4937359;28;20323;-87
2023/02/02 11:11:22;;;;;;;;;;;9.10;99.90;;;;;;4997792;28;20314;-79
2023/02/02 11:13:48;;;;;;;;;;;9.20;99.90;;;;;;5027372;28;19920;-88
2023/02/02 11:16:14;;;;;;;;;;;9.20;99.90;;;;;;5020502;28;19956;-68
2023/02/02 11:18:40;;;;;;;;;;;9.20;99.90;;;;;;5029872;28;20034;-69
2023/02/02 11:21:28;;;;;;;;;;;9.20;99.90;;;;;;5029551;28;19909;-69
2023/02/02 11:24:00;;;;;;;;;;;9.20;99.90;;;;;;5031437;28;19966;-68
2023/02/02 11:26:26;;;;;;;;;;;9.20;99.90;;;;;;5040344;28;19909;-69
2023/02/02 11:28:54;;;;;;;;;;;9.20;99.90;;;;;;5037701;28;20292;-82
2023/02/02 11:31:35;;;;;;;;;;;9.20;99.90;;;;;;5036203;28;19908;-69
2023/02/02 11:34:19;;;;;;;;;;;9.20;99.90;;;;;;5033658;28;19959;-68
2023/02/02 11:36:56;;;;;;;;;;;9.20;99.90;;;;;;5027797;28;19909;-69
2023/02/02 11:39:22;;;;;;;;;;;9.20;99.90;;;;;;5028288;28;19909;-68
2023/02/02 11:41:47;;;;;;;;;;;9.20;99.90;;;;;;4948154;28;20220;-68
2023/02/02 11:44:19;;;;;;;;;;;9.10;99.90;;;;;;4940578;28;19917;-68
2023/02/02 11:46:45;;;;;;;;;;;9.10;99.90;;;;;;4939117;28;19993;-68
2023/02/02 11:49:15;;;;;;;;;;;9.20;99.90;;;;;;4937173;28;19919;-69
2023/02/02 11:51:41;;;;;;;;;;;9.20;99.90;;;;;;4937222;28;19944;-81
2023/02/02 11:54:07;;;;;;;;;;;9.20;99.90;;;;;;4950145;28;20756;-68
2023/02/02 11:56:34;;;;;;;;;;;9.20;99.90;;;;;;4937468;28;19987;-68
2023/02/02 11:59:02;;;;;;;;;;;9.20;99.90;;;;;;4953181;28;19952;-91
2023/02/02 12:01:35;;;;;;;;;;;9.20;99.90;;;;;;4954999;28;19913;-84
2023/02/02 12:04:02;;;;;;;;;;;9.20;99.90;;;;;;4950207;28;19917;-84
2023/02/02 12:06:35;;;;;;;;;;;9.10;99.90;;;;;;4954895;28;19912;-69
2023/02/02 12:09:08;;;;;;;;;;;9.10;99.90;;;;;;4968415;28;20582;-87
2023/02/02 12:11:54;;;;;;;;;;;9.00;99.90;;;;;;4941463;28;19936;-69
2023/02/02 12:14:25;;;;;;;;;;;9.00;99.90;;;;;;4929177;28;19913;-72
2023/02/02 12:17:09;;;;;;;;;;;9.00;99.90;;;;;;4943957;28;21623;-89
2023/02/02 12:19:51;;;;;;;;;;;9.10;99.90;;;;;;4943574;28;20007;-70
2023/02/02 12:22:26;;;;;;;;;;;9.00;99.90;;;;;;4923856;28;20328;-69
2023/02/02 12:24:51;;;;;;;;;;;9.00;99.90;;;;;;4920982;28;19923;-68
2023/02/02 12:27:17;;;;;;;;;;;9.00;99.90;;;;;;4935184;28;19913;-80
2023/02/02 12:29:54;;;;;;;;;;;9.00;99.90;;;;;;4925457;28;20744;-68
2023/02/02 12:32:33;;;;;;;;;;;9.00;99.90;;;;;;4929470;28;19928;-69
2023/02/02 12:35:20;;;;;;;;;;;9.00;99.90;;;;;;4923901;28;19913;-68
2023/02/02 12:37:45;;;;;;;;;;;9.00;99.90;;;;;;4908625;28;19920;-69
2023/02/02 12:40:20;;;;;;;;;;;8.90;99.90;;;;;;4917654;28;21147;-87
2023/02/02 12:42:51;;;;;;;;;;;8.90;99.90;;;;;;4900363;28;19920;-68
2023/02/02 12:45:26;;;;;;;;;;;8.90;99.90;;;;;;4929786;28;22984;-70
2023/02/02 12:48:00;;;;;;;;;;;8.90;99.90;;;;;;4925221;28;19935;-68
2023/02/02 12:50:33;;;;;;;;;;;8.90;99.90;;;;;;4929329;28;19913;-93
2023/02/02 12:53:15;;;;;;;;;;;8.90;99.90;;;;;;4916145;28;20517;-68
2023/02/02 12:55:54;;;;;;;;;;;8.90;99.90;;;;;;4934771;28;19952;-69
2023/02/02 12:58:32;;;;;;;;;;;8.90;99.90;;;;;;4930944;28;19913;-70
2023/02/02 13:01:00;;;;;;;;;;;8.90;99.90;;;;;;4927861;28;20742;-73
2023/02/02 13:03:37;;;;;;;;;;;8.80;99.90;;;;;;4926977;28;23820;-68
2023/02/02 13:06:09;;;;;;;;;;;8.90;99.90;;;;;;4914000;28;19922;-69
2023/02/02 13:08:37;;;;;;;;;;;8.80;99.90;;;;;;4918299;28;20339;-68
2023/02/02 13:11:05;;;;;;;;;;;8.70;99.90;;;;;;4925161;28;19927;-69
2023/02/02 13:13:37;;;;;;;;;;;8.60;99.90;;;;;;4919504;28;20322;-69
2023/02/02 13:16:08;;;;;;;;;;;8.60;99.90;;;;;;4923859;28;19934;-69
2023/02/02 13:18:35;;;;;;;;;;;8.50;99.90;;;;;;4918602;28;19917;-68
2023/02/02 13:21:03;;;;;;;;;;;8.50;99.90;;;;;;4931686;28;19912;-68
2023/02/02 13:23:33;;;;;;;;;;;8.50;99.90;;;;;;4925659;28;19928;-68
2023/02/02 13:26:03;;;;;;;;;;;8.40;99.90;;;;;;4926965;28;20012;-68
2023/02/02 13:28:37;;;;;;;;;;;8.40;99.90;;;;;;4930850;28;19913;-69
2023/02/02 13:31:06;;;;;;;;;;;8.40;99.90;;;;;;4921626;28;20011;-68
2023/02/02 13:33:34;;;;;;;;;;;8.40;99.90;;;;;;4927357;28;19995;-68
2023/02/02 13:36:02;;;;;;;;;;;8.40;99.90;;;;;;4932300;28;19921;-68
2023/02/02 13:38:29;;;;;;;;;;;8.40;99.90;;;;;;4934009;28;19913;-69
2023/02/02 13:40:57;;;;;;;;;;;8.40;99.90;;;;;;4933374;28;19917;-69
2023/02/02 13:43:22;;;;;;;;;;;8.40;99.90;;;;;;4937509;28;19917;-68
2023/02/02 13:45:59;;;;;;;;;;;8.30;99.90;;;;;;4937635;28;20673;-68
2023/02/02 13:48:31;;;;;;;;;;;8.30;99.90;;;;;;4938155;28;20969;-69
2023/02/02 13:51:12;;;;;;;;;;;8.30;99.90;;;;;;4943582;28;19913;-68
2023/02/02 13:54:03;;;;;;;;;;;8.30;99.90;;;;;;5028113;28;19913;-68
2023/02/02 13:56:32;;;;;;;;;;;8.30;99.90;;;;;;5009904;28;19913;-69
2023/02/02 13:58:57;;;;;;;;;;;8.30;99.90;;;;;;5031116;28;19924;-68
2023/02/02 14:01:24;;;;;;;;;;;8.30;99.90;;;;;;5026910;28;19909;-69
2023/02/02 14:03:59;;;;;;;;;;;8.30;99.90;;;;;;5001613;28;19975;-69
2023/02/02 14:06:25;;;;;;;;;;;8.20;99.90;;;;;;5014810;28;19932;-68
2023/02/02 14:08:51;;;;;;;;;;;8.30;99.90;;;;;;5027658;28;20046;-83
2023/02/02 14:11:19;;;;;;;;;;;8.30;99.90;;;;;;5073357;28;20002;-68
2023/02/02 14:16:31;;;;;;;;;;;8.20;99.90;;;;;;5072849;28;19920;-69
2023/02/02 14:19:00;;;;;;;;;;;8.20;99.90;;;;;;5072526;28;19908;-69
2023/02/02 14:21:32;;;;;;;;;;;8.20;99.90;;;;;;5040765;28;20074;-69
2023/02/02 14:24:03;;;;;;;;;;;8.20;99.90;;;;;;5048174;28;19916;-85
2023/02/02 14:26:41;;;;;;;;;;;8.20;99.90;;;;;;5072669;28;19912;-69
2023/02/02 14:29:28;;;;;;;;;;;8.20;99.90;;;;;;5071520;28;19916;-69
2023/02/02 14:31:54;;;;;;;;;;;8.20;99.90;;;;;;4962627;28;19920;-68
2023/02/02 14:34:36;;;;;;;;;;;8.20;99.90;;;;;;4954640;28;19912;-69
2023/02/02 14:37:14;;;;;;;;;;;8.20;99.90;;;;;;4957223;28;20264;-69
2023/02/02 14:39:57;;;;;;;;;;;8.20;99.90;;;;;;4963546;28;22338;-69
2023/02/02 14:45:22;;;;;;;;;;;8.20;99.90;;;;;;4963891;28;19919;-82
2023/02/02 14:47:50;;;;;;;;;;;8.20;99.90;;;;;;5019107;28;19908;-87
2023/02/02 14:50:35;;;;;;;;;;;8.20;99.90;;;;;;5067630;28;20298;-82
2023/02/02 14:53:02;;;;;;;;;;;8.20;99.90;;;;;;5065858;28;19958;-68
2023/02/02 14:55:28;;;;;;;;;;;8.20;99.90;;;;;;5066629;28;20007;-83
2023/02/02 14:57:55;;;;;;;;;;;8.20;99.90;;;;;;5055382;28;20030;-80
2023/02/02 15:00:22;;;;;;;;;;;8.20;99.90;;;;;;5068793;28;19923;-78